CheckWX is a tool to help pilots better visualize weather data.  It is not intended as a substitute for an official pre-flight weather briefing.

16:34:35 UTC

EGVA METAR
RAF Fairford Airport
Fairford, United Kingdom
Current

39 mins ago

EGVA 251556Z AUTO 17007KT 9999 OVC007 07/07 A2997 RMK AO2 SLP155 T00670066 $
Observed
Jan-25 @ 15:56 UTC
Wind
  • 170° at 7 KTS
Visibility
10,000+ meters
Flight Rules
IFR
Cloud Levels
  • Overcast at 700' AGL
Temperature
C / 45°F
Dewpoint
C / 45°F
Humidity
100%
Altimeter
29.97" Hg
Pressure
1014.92 hPa
Previous

59 mins ago

EGVA 251536Z AUTO 16008KT 9999 OVC007 07/07 A2998 RMK AO2 SLP158 $
Observed
Jan-25 @ 15:36 UTC
Wind
  • 160° at 8 KTS
Visibility
10,000+ meters
Flight Rules
IFR
Cloud Levels
  • Overcast at 700' AGL
Temperature
C / 45°F
Dewpoint
C / 45°F
Humidity
100%
Altimeter
29.98" Hg
Pressure
1015.22 hPa
Previous

2 hours ago

EGVA 251456Z AUTO 14004KT 9999 OVC006 06/06 A2998 RMK AO2 SLP158 T00630062 57022 $
Observed
Jan-25 @ 14:56 UTC
Wind
  • 140° at 4 KTS
Visibility
10,000+ meters
Flight Rules
IFR
Cloud Levels
  • Overcast at 600' AGL
Temperature
C / 43°F
Dewpoint
C / 43°F
Humidity
100%
Altimeter
29.98" Hg
Pressure
1015.22 hPa